Hovedside
METAR-TAF:

METAR-TAF

Lufthavner :

Foz do Iguaçu, Paraná, Brasil

breddegrad: 25-31S, lengdegrad: 054-35W, høyde over havet: 180 m

Gjeldene værobservasjon

Denne rapporten ble laget for 54 minutter siden, klokken 17:00 UTC
Vind 6 kt fra Nord-nordøst
Temperatur 29°C
Luftfuktighet 45%
Trykk 1013 hPa
Sikt 10 km eller mer
ingen skyer under 1500 m og ingen bygeskyer

METAR: SBFI 211700Z 03006KT CAVOK 29/16 Q1013

Tid: 15:54 (17:54 UTC)

Varsel

Denne rapporten ble laget for 2 timer og 39 minutter siden, klokken 15:15 UTC
Varsel gyldig fra 21. klokken 18 UTC til 22. klokken 18 UTC
Vind 7 kt fra Nord-nordøst
Sikt 10 km eller mer
ingen skyer under 1500 m og ingen bygeskyer
Blir
fra 21. klokken 20 UTC til 21. klokken 22 UTC
Vind 6 kt fra Øst-sørøst
Blir
fra 22. klokken 13 UTC til 22. klokken 15 UTC
Vind 9 kt fra Nord

TAF: SBFI 211515Z 2118/2218 02007KT CAVOK TN18/2209Z TX31/2218Z BECMG 2120/2122 12006KT BECMG 2213/2215 01009KT RMK PDW

Værobservasjoner og værvarsel for over 4000 flyplasser (METAR- og TAF-rapporter).

Tilgjengelige stasjoner er representert av de røde og gule prikkene på kartet.

Hold musepekeren over prikken for å se navnet på stasjonen.

Klikk så for å se værobservasjoner og -varsler.

For å forandre kartet kan du klikke på den grønne knappen med svart kryss for å zoome inn, på den grønne knappen med strek for å zoome ut, eller på de grønne pilene for å se tilstøtende kart.


METAR-TAF: